createdAt,value
2019-03-04T00:00:18.845Z,11.98
2019-03-04T00:01:18.823Z,11.99
2019-03-04T00:02:18.789Z,11.96
2019-03-04T00:03:18.777Z,12.01
2019-03-04T00:04:18.862Z,12.04
2019-03-04T00:05:18.754Z,12.04
2019-03-04T00:06:18.744Z,12.01
2019-03-04T00:07:18.735Z,12.10
2019-03-04T00:08:18.728Z,12.05
2019-03-04T00:09:18.732Z,12.05
2019-03-04T00:10:18.699Z,12.19
2019-03-04T00:11:18.692Z,12.20
2019-03-04T00:12:18.681Z,12.20
2019-03-04T00:13:18.676Z,12.19
2019-03-04T00:14:18.690Z,12.19
2019-03-04T00:15:18.643Z,12.17
2019-03-04T00:16:19.215Z,12.24
2019-03-04T00:17:18.625Z,12.27
2019-03-04T00:18:18.638Z,12.29
2019-03-04T00:19:18.608Z,12.37
2019-03-04T00:20:18.611Z,12.28
2019-03-04T00:21:18.660Z,12.28
2019-03-04T00:22:18.561Z,12.34
2019-03-04T00:23:18.549Z,12.24
2019-03-04T00:24:18.730Z,12.24
2019-03-04T00:25:18.536Z,12.27
2019-03-04T00:26:18.542Z,12.24
2019-03-04T00:27:18.507Z,12.23
2019-03-04T00:28:18.497Z,12.24
2019-03-04T00:29:18.512Z,12.27
2019-03-04T00:30:18.480Z,12.34
2019-03-04T00:31:18.466Z,12.29
2019-03-04T00:32:18.451Z,12.24
2019-03-04T00:33:18.445Z,12.24
2019-03-04T00:34:18.450Z,12.32
2019-03-04T00:35:18.424Z,12.31
2019-03-04T00:36:18.422Z,12.39
2019-03-04T00:37:18.417Z,12.39
2019-03-04T00:38:18.381Z,12.34
2019-03-04T00:39:18.383Z,12.32
2019-03-04T00:40:18.364Z,12.38
2019-03-04T00:41:18.364Z,12.39
2019-03-04T00:42:18.343Z,12.45
2019-03-04T00:43:18.338Z,12.45
2019-03-04T00:44:18.339Z,12.37
2019-03-04T00:45:18.312Z,12.38
2019-03-04T00:46:18.290Z,12.35
2019-03-04T00:47:18.282Z,12.45
2019-03-04T00:48:18.281Z,12.37
2019-03-04T00:49:18.259Z,12.38
2019-03-04T00:50:18.265Z,12.42
2019-03-04T00:51:18.250Z,12.39
2019-03-04T00:52:18.229Z,12.41
2019-03-04T00:53:18.222Z,12.42
2019-03-04T00:54:18.227Z,12.37
2019-03-04T00:55:18.203Z,12.39
2019-03-04T00:56:18.181Z,12.38
2019-03-04T00:57:18.181Z,12.39
2019-03-04T00:58:18.162Z,12.41
2019-03-04T00:59:18.158Z,12.41
2019-03-04T01:00:18.152Z,12.46
2019-03-04T01:01:18.124Z,12.46
2019-03-04T01:02:18.121Z,12.46
2019-03-04T01:03:18.097Z,12.47
2019-03-04T01:04:18.089Z,12.38
2019-03-04T01:05:18.090Z,12.46
2019-03-04T01:06:18.076Z,12.39
2019-03-04T01:07:18.051Z,12.46
2019-03-04T01:08:18.047Z,12.47
2019-03-04T01:09:18.029Z,12.39
2019-03-04T01:10:18.034Z,12.46
2019-03-04T01:11:18.007Z,12.39
2019-03-04T01:12:17.995Z,12.38
2019-03-04T01:13:18.003Z,12.38
2019-03-04T01:14:17.971Z,12.42
2019-03-04T01:15:17.974Z,12.39
2019-03-04T01:16:17.951Z,12.47
2019-03-04T01:17:17.941Z,12.37
2019-03-04T01:18:17.928Z,12.39
2019-03-04T01:19:17.916Z,12.45
2019-03-04T01:20:17.910Z,12.39
2019-03-04T01:21:17.909Z,12.41
2019-03-04T01:22:17.909Z,12.35
2019-03-04T01:23:17.872Z,12.42
2019-03-04T01:24:17.862Z,12.38
2019-03-04T01:25:17.848Z,12.47
2019-03-04T01:26:17.864Z,12.39
2019-03-04T01:27:17.834Z,12.32
2019-03-04T01:28:17.817Z,12.37
2019-03-04T01:29:17.822Z,12.39
2019-03-04T01:30:17.792Z,12.34
2019-03-04T01:31:17.804Z,12.39
2019-03-04T01:32:17.771Z,12.34
2019-03-04T01:33:17.805Z,12.37
2019-03-04T01:34:17.756Z,12.39
2019-03-04T01:35:17.739Z,12.37
2019-03-04T01:36:17.735Z,12.31
2019-03-04T01:37:17.713Z,12.31
2019-03-04T01:38:17.700Z,12.34
2019-03-04T01:39:17.692Z,12.34
2019-03-04T01:40:17.678Z,12.34
2019-03-04T01:41:17.681Z,12.37
2019-03-04T01:42:17.658Z,12.32
2019-03-04T01:43:17.647Z,12.34
2019-03-04T01:44:17.638Z,12.28
2019-03-04T01:45:17.632Z,12.32
2019-03-04T01:46:17.624Z,12.27
2019-03-04T01:47:17.606Z,12.34
2019-03-04T01:48:17.590Z,12.32
2019-03-04T01:49:17.579Z,12.24
2019-03-04T01:50:17.566Z,12.27
2019-03-04T01:51:17.573Z,12.31
2019-03-04T01:52:17.543Z,12.28
2019-03-04T01:53:17.531Z,12.31
2019-03-04T01:54:17.520Z,12.32
2019-03-04T01:55:17.510Z,12.35
2019-03-04T01:56:17.516Z,12.32
2019-03-04T01:57:17.488Z,12.37
2019-03-04T01:58:17.536Z,12.45
2019-03-04T01:59:17.466Z,12.39
2019-03-04T02:00:17.476Z,12.41
2019-03-04T02:01:17.453Z,12.39
2019-03-04T02:02:17.441Z,12.39
2019-03-04T02:03:17.418Z,12.39
2019-03-04T02:04:17.408Z,12.38
2019-03-04T02:05:17.398Z,12.42
2019-03-04T02:06:17.400Z,12.41
2019-03-04T02:07:17.383Z,12.46
2019-03-04T02:08:17.370Z,12.37
2019-03-04T02:09:17.353Z,12.41
2019-03-04T02:10:17.352Z,12.38
2019-03-04T02:11:17.356Z,12.46
2019-03-04T02:12:17.357Z,12.39
2019-03-04T02:13:17.305Z,12.49
2019-03-04T02:14:17.297Z,12.50
2019-03-04T02:15:17.302Z,12.53
2019-03-04T02:16:17.272Z,12.53
2019-03-04T02:17:17.278Z,12.59
2019-03-04T02:18:17.258Z,12.64
2019-03-04T02:19:17.239Z,12.50
2019-03-04T02:20:17.237Z,12.50
2019-03-04T02:21:17.216Z,12.52
2019-03-04T02:22:17.223Z,12.53
2019-03-04T02:23:17.192Z,12.46
2019-03-04T02:24:17.214Z,12.47
2019-03-04T02:25:17.182Z,12.47
2019-03-04T02:26:17.167Z,12.50
2019-03-04T02:27:17.160Z,12.47
2019-03-04T02:28:17.138Z,12.46
2019-03-04T02:29:17.125Z,12.47
2019-03-04T02:30:17.116Z,12.53
2019-03-04T02:31:17.121Z,12.46
2019-03-04T02:32:17.105Z,12.62
2019-03-04T02:33:17.083Z,12.83
2019-03-04T02:34:17.074Z,13.04
2019-03-04T02:35:17.062Z,13.04
2019-03-04T02:36:17.048Z,13.23
2019-03-04T02:37:17.057Z,13.39
2019-03-04T02:38:17.036Z,13.33
2019-03-04T02:39:17.029Z,13.44
2019-03-04T02:40:17.022Z,13.52
2019-03-04T02:41:16.994Z,13.44
2019-03-04T02:42:16.995Z,13.41
2019-03-04T02:43:16.984Z,13.38
2019-03-04T02:44:16.955Z,13.39
2019-03-04T02:45:16.960Z,13.39
2019-03-04T02:46:16.932Z,13.26
2019-03-04T02:47:16.922Z,13.36
2019-03-04T02:48:16.926Z,13.28
2019-03-04T02:49:16.904Z,13.26
2019-03-04T02:50:16.894Z,13.22
2019-03-04T02:51:16.877Z,13.29
2019-03-04T02:52:16.868Z,13.22
2019-03-04T02:53:16.867Z,13.25
2019-03-04T02:54:16.843Z,13.19
2019-03-04T02:55:16.835Z,13.20
2019-03-04T02:56:16.826Z,13.08
2019-03-04T02:57:16.821Z,13.05
2019-03-04T02:58:16.813Z,13.11
2019-03-04T02:59:16.792Z,13.05
2019-03-04T03:00:16.778Z,13.05
2019-03-04T03:01:16.768Z,13.04
2019-03-04T03:02:16.764Z,13.08
2019-03-04T03:03:16.756Z,13.04
2019-03-04T03:04:16.730Z,13.01
2019-03-04T03:05:16.719Z,12.92
2019-03-04T03:06:16.719Z,12.95
2019-03-04T03:07:16.698Z,12.87
2019-03-04T03:08:16.688Z,12.78
2019-03-04T03:09:16.687Z,12.78
2019-03-04T03:10:16.670Z,12.71
2019-03-04T03:11:16.651Z,12.68
2019-03-04T03:12:16.639Z,12.59
2019-03-04T03:13:16.660Z,12.45
2019-03-04T03:14:16.632Z,12.42
2019-03-04T03:15:16.606Z,12.37
2019-03-04T03:16:16.594Z,12.31
2019-03-04T03:17:16.583Z,12.27
2019-03-04T03:18:16.571Z,12.27
2019-03-04T03:19:16.735Z,12.21
2019-03-04T03:20:16.568Z,12.16
2019-03-04T03:21:16.537Z,12.21
2019-03-04T03:22:16.525Z,12.14
2019-03-04T03:23:16.514Z,12.20
2019-03-04T03:24:16.528Z,12.13
2019-03-04T03:25:16.518Z,12.09
2019-03-04T03:26:16.481Z,12.07
2019-03-04T03:27:16.474Z,11.96
2019-03-04T03:28:16.457Z,12.10
2019-03-04T03:29:16.462Z,11.99
2019-03-04T03:30:16.462Z,11.90
2019-03-04T03:31:16.425Z,11.86
2019-03-04T03:32:16.438Z,11.85
2019-03-04T03:33:16.440Z,11.78
2019-03-04T03:34:16.411Z,11.78
2019-03-04T03:35:16.394Z,11.76
2019-03-04T03:36:16.371Z,11.78
2019-03-04T03:37:16.374Z,11.80
2019-03-04T03:38:16.347Z,11.86
2019-03-04T03:39:16.336Z,11.90
2019-03-04T03:40:16.339Z,11.95
2019-03-04T03:41:16.314Z,11.99
2019-03-04T03:42:18.824Z,12.01
2019-03-04T03:43:16.296Z,12.10
2019-03-04T03:44:16.293Z,12.07
2019-03-04T03:45:16.277Z,12.05
2019-03-04T03:46:16.258Z,12.10
2019-03-04T03:47:16.245Z,12.01
2019-03-04T03:48:16.234Z,12.09
2019-03-04T03:49:16.218Z,12.14
2019-03-04T03:50:16.231Z,12.17
2019-03-04T03:51:16.198Z,12.10
2019-03-04T03:52:16.199Z,12.01
2019-03-04T03:53:16.175Z,12.07
2019-03-04T03:54:16.167Z,12.10
2019-03-04T03:55:16.178Z,11.98
2019-03-04T03:56:16.145Z,12.01
2019-03-04T03:57:16.150Z,12.02
2019-03-04T03:58:16.123Z,12.05
2019-03-04T03:59:16.106Z,12.01
2019-03-04T04:00:16.161Z,11.99
2019-03-04T04:01:16.086Z,11.96
2019-03-04T04:02:16.072Z,12.02
2019-03-04T04:03:16.065Z,12.01
2019-03-04T04:04:16.050Z,11.95
2019-03-04T04:05:16.061Z,11.98
2019-03-04T04:06:16.027Z,12.14
2019-03-04T04:07:16.017Z,12.12
2019-03-04T04:08:16.030Z,12.01
2019-03-04T04:09:15.995Z,12.07
2019-03-04T04:10:16.004Z,11.99
2019-03-04T04:11:15.979Z,12.05
2019-03-04T04:12:15.961Z,12.13
2019-03-04T04:13:15.960Z,12.12
2019-03-04T04:14:15.939Z,12.19
2019-03-04T04:15:15.925Z,12.19
2019-03-04T04:16:15.929Z,12.05
2019-03-04T04:17:15.913Z,12.01
2019-03-04T04:18:15.894Z,12.12
2019-03-04T04:19:15.884Z,12.09
2019-03-04T04:20:15.869Z,11.95
2019-03-04T04:21:15.874Z,12.05
2019-03-04T04:22:15.847Z,12.01
2019-03-04T04:23:15.835Z,11.98
2019-03-04T04:24:15.825Z,11.96
2019-03-04T04:25:15.809Z,12.01
2019-03-04T04:26:15.818Z,11.95
2019-03-04T04:27:15.785Z,11.83
2019-03-04T04:28:15.779Z,11.78
2019-03-04T04:29:15.762Z,11.80
2019-03-04T04:30:15.756Z,11.85
2019-03-04T04:31:15.762Z,11.76
2019-03-04T04:32:15.752Z,11.65
2019-03-04T04:33:15.718Z,11.78
2019-03-04T04:34:15.716Z,11.78
2019-03-04T04:35:15.714Z,11.61
2019-03-04T04:36:15.723Z,11.55
2019-03-04T04:37:15.675Z,11.55
2019-03-04T04:38:15.664Z,11.43
2019-03-04T04:39:15.652Z,11.36
2019-03-04T04:40:15.651Z,11.39
2019-03-04T04:41:15.636Z,11.35
2019-03-04T04:42:15.620Z,11.21
2019-03-04T04:43:15.613Z,11.19
2019-03-04T04:44:15.593Z,11.18
2019-03-04T04:45:15.597Z,11.21
2019-03-04T04:46:15.589Z,11.19
2019-03-04T04:47:15.558Z,11.04
2019-03-04T04:48:15.555Z,11.11
2019-03-04T04:49:15.534Z,11.10
2019-03-04T04:50:15.536Z,11.09
2019-03-04T04:51:15.522Z,11.09
2019-03-04T04:52:15.501Z,11.09
2019-03-04T04:53:15.492Z,11.09
2019-03-04T04:54:15.484Z,11.06
2019-03-04T04:55:15.473Z,11.09
2019-03-04T04:56:15.478Z,11.03
2019-03-04T04:57:15.446Z,11.00
2019-03-04T04:58:15.433Z,11.02
2019-03-04T04:59:15.426Z,10.99
2019-03-04T05:00:15.421Z,10.99
2019-03-04T05:01:15.406Z,10.96
2019-03-04T05:02:15.403Z,10.96
2019-03-04T05:03:15.378Z,10.92
2019-03-04T05:04:15.373Z,10.96
2019-03-04T05:05:15.398Z,10.99
2019-03-04T05:06:15.345Z,10.96
2019-03-04T05:07:15.344Z,10.92
2019-03-04T05:08:15.323Z,10.91
2019-03-04T05:09:15.320Z,10.89
2019-03-04T05:10:15.325Z,10.96
2019-03-04T05:11:15.285Z,10.99
2019-03-04T05:12:15.299Z,11.00
2019-03-04T05:13:15.271Z,10.92
2019-03-04T05:14:15.254Z,10.88
2019-03-04T05:15:15.249Z,11.00
2019-03-04T05:16:15.232Z,10.94
2019-03-04T05:17:15.246Z,10.96
2019-03-04T05:18:15.226Z,10.92
2019-03-04T05:19:15.195Z,10.92
2019-03-04T05:20:15.198Z,10.97
2019-03-04T05:21:15.195Z,11.02
2019-03-04T05:22:15.162Z,11.03
2019-03-04T05:23:15.165Z,10.99
2019-03-04T05:24:15.173Z,11.00
2019-03-04T05:25:15.145Z,11.04
2019-03-04T05:26:15.132Z,11.06
2019-03-04T05:27:15.134Z,11.09
2019-03-04T05:28:15.141Z,11.06
2019-03-04T05:29:15.104Z,11.15
2019-03-04T05:30:15.082Z,11.10
2019-03-04T05:31:15.060Z,11.14
2019-03-04T05:32:15.063Z,11.15
2019-03-04T05:33:15.056Z,11.03
2019-03-04T05:34:15.042Z,11.11
2019-03-04T05:35:15.030Z,11.03
2019-03-04T05:36:15.003Z,11.09
2019-03-04T05:37:15.007Z,11.11
2019-03-04T05:38:15.001Z,11.10
2019-03-04T05:39:14.970Z,11.11
2019-03-04T05:40:14.963Z,11.19
2019-03-04T05:41:14.949Z,11.22
2019-03-04T05:42:14.947Z,11.24
2019-03-04T05:43:14.936Z,11.21
2019-03-04T05:44:14.940Z,11.39
2019-03-04T05:45:14.911Z,11.40
2019-03-04T05:46:14.910Z,11.49
2019-03-04T05:47:14.879Z,11.54
2019-03-04T05:48:14.895Z,11.43
2019-03-04T05:49:14.867Z,11.54
2019-03-04T05:50:14.848Z,11.51
2019-03-04T05:51:14.842Z,11.61
2019-03-04T05:52:14.829Z,11.64
2019-03-04T05:53:14.815Z,11.62
2019-03-04T05:54:14.829Z,11.73
2019-03-04T05:55:14.792Z,11.64
2019-03-04T05:56:14.783Z,11.69
2019-03-04T05:57:14.774Z,11.70
2019-03-04T05:58:14.756Z,11.70
2019-03-04T05:59:19.723Z,11.69
2019-03-04T06:00:15.733Z,11.69
2019-03-04T06:01:14.732Z,11.70
2019-03-04T06:02:14.712Z,11.70
2019-03-04T06:03:14.700Z,11.75
2019-03-04T06:04:14.702Z,11.76
2019-03-04T06:05:14.679Z,11.69
2019-03-04T06:06:14.673Z,11.65
2019-03-04T06:07:14.658Z,11.72
2019-03-04T06:08:14.650Z,11.76
2019-03-04T06:09:14.661Z,11.85
2019-03-04T06:10:14.626Z,11.78
2019-03-04T06:11:14.613Z,11.83
2019-03-04T06:12:14.606Z,11.78
2019-03-04T06:13:14.587Z,11.83
2019-03-04T06:14:14.580Z,11.85
2019-03-04T06:15:14.580Z,11.78
2019-03-04T06:16:14.567Z,11.78
2019-03-04T06:17:14.544Z,11.80
2019-03-04T06:18:14.533Z,11.79
2019-03-04T06:19:14.521Z,11.75
2019-03-04T06:20:14.528Z,11.80
2019-03-04T06:21:14.509Z,11.79
2019-03-04T06:22:14.486Z,11.80
2019-03-04T06:23:14.485Z,11.73
2019-03-04T06:24:14.463Z,11.76
2019-03-04T06:25:14.472Z,11.75
2019-03-04T06:26:14.444Z,11.80
2019-03-04T06:27:14.430Z,11.80
2019-03-04T06:28:14.486Z,11.83
2019-03-04T06:29:14.410Z,11.80
2019-03-04T06:30:14.402Z,11.78
2019-03-04T06:31:14.384Z,11.78
2019-03-04T06:32:14.371Z,11.73
2019-03-04T06:33:14.368Z,11.80
2019-03-04T06:34:14.355Z,11.86
2019-03-04T06:35:14.409Z,11.85
2019-03-04T06:36:14.326Z,11.80
2019-03-04T06:37:14.316Z,11.90
2019-03-04T06:38:14.300Z,11.99
2019-03-04T06:39:14.295Z,11.98
2019-03-04T06:40:14.284Z,12.04
2019-03-04T06:41:14.298Z,12.01
2019-03-04T06:42:14.257Z,11.96
2019-03-04T06:43:14.245Z,11.99
2019-03-04T06:44:14.240Z,11.96
2019-03-04T06:45:14.222Z,12.01
2019-03-04T06:46:14.224Z,12.10
2019-03-04T06:47:14.208Z,12.09
2019-03-04T06:48:14.195Z,12.09
2019-03-04T06:49:14.181Z,12.09
2019-03-04T06:50:14.166Z,12.21
2019-03-04T06:51:14.167Z,12.21
2019-03-04T06:52:14.155Z,12.14
2019-03-04T06:53:14.132Z,12.23
2019-03-04T06:54:14.123Z,12.34
2019-03-04T06:55:14.107Z,12.32
2019-03-04T06:56:14.117Z,12.39
2019-03-04T06:57:14.086Z,12.38
2019-03-04T06:58:14.075Z,12.38
2019-03-04T06:59:14.127Z,12.45
2019-03-04T07:00:14.065Z,12.45
2019-03-04T07:01:14.056Z,12.50
2019-03-04T07:02:14.029Z,12.56
2019-03-04T07:03:14.028Z,12.47
2019-03-04T07:04:14.005Z,12.67
2019-03-04T07:05:13.994Z,12.62
2019-03-04T07:06:14.000Z,12.72
2019-03-04T07:07:13.978Z,12.68
2019-03-04T07:08:13.977Z,12.72
2019-03-04T07:09:13.981Z,12.78
2019-03-04T07:10:13.944Z,12.85
2019-03-04T07:11:13.935Z,12.83
2019-03-04T07:12:13.922Z,12.93
2019-03-04T07:13:13.942Z,13.04
2019-03-04T07:14:13.927Z,12.96
2019-03-04T07:15:13.882Z,12.95
2019-03-04T07:16:13.907Z,13.11
2019-03-04T07:17:13.857Z,12.95
2019-03-04T07:18:13.848Z,13.11
2019-03-04T07:19:13.862Z,13.17
2019-03-04T07:20:13.839Z,13.07
2019-03-04T07:21:13.816Z,13.07
2019-03-04T07:22:13.807Z,13.19
2019-03-04T07:23:13.813Z,13.22
2019-03-04T07:24:13.793Z,13.19
2019-03-04T07:25:13.766Z,13.39
2019-03-04T07:26:13.811Z,13.32
2019-03-04T07:27:13.760Z,13.45
2019-03-04T07:28:13.732Z,13.52
2019-03-04T07:29:15.100Z,13.55
2019-03-04T07:30:13.714Z,13.52
2019-03-04T07:31:13.710Z,13.62
2019-03-04T07:32:13.734Z,13.66
2019-03-04T07:33:13.682Z,13.63
2019-03-04T07:34:13.665Z,13.73
2019-03-04T07:35:13.658Z,13.79
2019-03-04T07:36:13.644Z,13.78
2019-03-04T07:37:13.653Z,13.91
2019-03-04T07:38:13.628Z,13.89
2019-03-04T07:39:13.610Z,13.99
2019-03-04T07:40:13.603Z,13.88
2019-03-04T07:41:13.595Z,13.91
2019-03-04T07:42:13.582Z,13.88
2019-03-04T07:43:13.588Z,13.95
2019-03-04T07:44:13.553Z,13.92
2019-03-04T07:45:13.543Z,13.97
2019-03-04T07:46:13.546Z,13.96
2019-03-04T07:47:13.529Z,13.96
2019-03-04T07:48:13.519Z,14.09
2019-03-04T07:49:13.506Z,14.12
2019-03-04T07:50:13.491Z,14.12
2019-03-04T07:51:13.482Z,14.10
2019-03-04T07:52:13.463Z,14.06
2019-03-04T07:53:13.477Z,14.06
2019-03-04T07:54:13.438Z,14.02
2019-03-04T07:55:13.427Z,14.03
2019-03-04T07:56:13.432Z,14.00
2019-03-04T07:57:13.421Z,13.99
2019-03-04T07:58:13.429Z,14.03
2019-03-04T07:59:13.392Z,13.97
2019-03-04T08:00:13.376Z,13.95
2019-03-04T08:01:13.362Z,14.02
2019-03-04T08:02:13.374Z,14.00
2019-03-04T08:03:13.367Z,13.96
2019-03-04T08:04:13.329Z,13.91
2019-03-04T08:05:13.318Z,13.96
2019-03-04T08:06:13.322Z,13.87
2019-03-04T08:07:13.317Z,13.96
2019-03-04T08:08:13.338Z,13.96
2019-03-04T08:09:13.274Z,13.95
2019-03-04T08:10:13.255Z,13.88
2019-03-04T08:11:13.252Z,13.91
2019-03-04T08:12:13.235Z,13.82
2019-03-04T08:13:13.225Z,13.91
2019-03-04T08:14:13.226Z,13.88
2019-03-04T08:15:13.203Z,13.71
2019-03-04T08:16:13.190Z,13.64
2019-03-04T08:17:13.179Z,13.70
2019-03-04T08:18:13.172Z,13.66
2019-03-04T08:19:13.178Z,13.69
2019-03-04T08:20:13.181Z,13.63
2019-03-04T08:21:13.158Z,13.59
2019-03-04T08:22:13.129Z,13.63
2019-03-04T08:23:13.195Z,13.63
2019-03-04T08:24:13.122Z,13.59
2019-03-04T08:25:13.093Z,13.63
2019-03-04T08:26:13.097Z,13.52
2019-03-04T08:27:13.068Z,13.45
2019-03-04T08:28:13.063Z,13.51
2019-03-04T08:29:13.074Z,13.51
2019-03-04T08:30:13.040Z,13.54
2019-03-04T08:31:13.033Z,13.51
2019-03-04T08:32:13.028Z,13.57
2019-03-04T08:33:13.004Z,13.59
2019-03-04T08:34:13.006Z,13.59
2019-03-04T08:35:12.983Z,13.59
2019-03-04T08:36:12.980Z,13.59
2019-03-04T08:37:13.176Z,13.63
2019-03-04T08:38:12.953Z,13.66
2019-03-04T08:39:12.960Z,13.69
2019-03-04T08:40:12.932Z,13.63
2019-03-04T08:41:12.928Z,13.63
2019-03-04T08:42:12.903Z,13.69
2019-03-04T08:43:12.891Z,13.75
2019-03-04T08:44:12.912Z,13.67
2019-03-04T08:45:12.875Z,13.70
2019-03-04T08:46:12.867Z,13.71
2019-03-04T08:47:12.845Z,13.71
2019-03-04T08:48:12.844Z,13.73
2019-03-04T08:49:12.821Z,13.82
2019-03-04T08:50:12.829Z,13.85
2019-03-04T08:51:12.803Z,13.77
2019-03-04T08:52:12.788Z,13.79
2019-03-04T08:53:12.782Z,13.88
2019-03-04T08:54:12.763Z,13.79
2019-03-04T08:55:12.771Z,13.78
2019-03-04T08:56:12.750Z,13.82
2019-03-04T08:57:12.735Z,13.81
2019-03-04T08:58:12.718Z,13.91
2019-03-04T08:59:12.719Z,13.79
2019-03-04T09:00:12.723Z,13.84
2019-03-04T09:01:12.693Z,13.79
2019-03-04T09:02:12.675Z,13.87
2019-03-04T09:03:12.675Z,13.82
2019-03-04T09:04:12.652Z,13.81
2019-03-04T09:05:12.673Z,13.75
2019-03-04T09:06:12.634Z,13.71
2019-03-04T09:07:12.634Z,13.67
2019-03-04T09:08:12.629Z,13.44
2019-03-04T09:09:12.610Z,13.38
2019-03-04T09:10:12.614Z,13.23
2019-03-04T09:11:12.577Z,13.03
2019-03-04T09:12:12.560Z,12.74
2019-03-04T09:13:12.549Z,12.21
2019-03-04T09:14:12.542Z,11.95
2019-03-04T09:15:12.524Z,11.75
2019-03-04T09:16:12.523Z,11.76
2019-03-04T09:17:12.504Z,11.76
2019-03-04T09:18:12.494Z,11.61
2019-03-04T09:19:12.500Z,11.54
2019-03-04T09:20:12.479Z,11.55
2019-03-04T09:21:12.468Z,11.54
2019-03-04T09:22:12.457Z,11.51
2019-03-04T09:23:12.443Z,11.44
2019-03-04T09:24:12.428Z,11.49
2019-03-04T09:25:12.413Z,11.40
2019-03-04T09:26:12.412Z,11.46
2019-03-04T09:27:12.391Z,11.51
2019-03-04T09:28:12.392Z,11.44
2019-03-04T09:29:12.368Z,11.51
2019-03-04T09:30:12.360Z,11.58
2019-03-04T09:31:12.372Z,11.64
2019-03-04T09:32:12.341Z,11.64
2019-03-04T09:33:12.325Z,11.86
2019-03-04T09:34:12.310Z,11.78
2019-03-04T09:35:12.301Z,11.78
2019-03-04T09:36:12.309Z,11.94
2019-03-04T09:37:12.275Z,11.99
2019-03-04T09:38:12.270Z,12.04
2019-03-04T09:39:12.259Z,12.14
2019-03-04T09:40:12.249Z,12.27
2019-03-04T09:41:12.242Z,12.37
2019-03-04T09:42:12.219Z,12.42
2019-03-04T09:43:12.216Z,12.47
2019-03-04T09:44:12.197Z,12.46
2019-03-04T09:45:12.187Z,12.64
2019-03-04T09:46:12.184Z,12.70
2019-03-04T09:47:12.167Z,12.71
2019-03-04T09:48:12.184Z,12.90
2019-03-04T09:49:12.140Z,12.93
2019-03-04T09:50:12.132Z,12.93
2019-03-04T09:51:12.144Z,12.93
2019-03-04T09:52:12.126Z,12.97
2019-03-04T09:53:12.097Z,13.10
2019-03-04T09:54:12.089Z,13.23
2019-03-04T09:55:12.078Z,13.33
2019-03-04T09:56:12.063Z,13.51
2019-03-04T09:57:12.090Z,13.57
2019-03-04T09:58:12.038Z,13.66
2019-03-04T09:59:12.037Z,13.85
2019-03-04T10:00:12.022Z,13.79
2019-03-04T10:01:12.014Z,13.67
2019-03-04T10:02:12.010Z,13.64
2019-03-04T10:03:11.981Z,13.69
2019-03-04T10:04:11.974Z,13.84
2019-03-04T10:05:13.407Z,13.85
2019-03-04T10:06:11.961Z,13.87
2019-03-04T10:07:11.959Z,13.69
2019-03-04T10:08:11.928Z,13.69
2019-03-04T10:09:11.915Z,13.62
2019-03-04T10:10:11.907Z,13.60
2019-03-04T10:11:11.901Z,13.55
2019-03-04T10:12:11.906Z,13.52
2019-03-04T10:13:11.870Z,13.33
2019-03-04T10:14:11.856Z,13.14
2019-03-04T10:15:11.846Z,12.90
2019-03-04T10:16:18.458Z,12.45
2019-03-04T10:17:12.842Z,12.14
2019-03-04T10:18:11.829Z,11.79
2019-03-04T10:19:11.804Z,11.52
2019-03-04T10:20:11.802Z,11.46
2019-03-04T10:21:11.785Z,11.27
2019-03-04T10:22:11.786Z,11.06
2019-03-04T10:23:11.783Z,11.07
2019-03-04T10:24:11.744Z,11.00
2019-03-04T10:25:11.731Z,10.88
2019-03-04T10:26:15.468Z,10.92
2019-03-04T10:27:12.734Z,10.96
2019-03-04T10:28:11.704Z,10.89
2019-03-04T10:29:11.687Z,10.82
2019-03-04T10:30:11.674Z,10.78
2019-03-04T10:31:11.670Z,10.86
2019-03-04T10:32:11.657Z,10.76
2019-03-04T10:33:11.658Z,10.81
2019-03-04T10:34:11.639Z,10.81
2019-03-04T10:35:11.659Z,10.74
2019-03-04T10:36:11.610Z,10.70
2019-03-04T10:37:11.599Z,10.81
2019-03-04T10:38:11.595Z,10.76
2019-03-04T10:39:11.577Z,10.85
2019-03-04T10:40:11.571Z,10.88
2019-03-04T10:41:11.552Z,10.86
2019-03-04T10:42:11.556Z,10.78
2019-03-04T10:43:11.541Z,10.73
2019-03-04T10:44:11.519Z,10.67
2019-03-04T10:45:11.509Z,10.51
2019-03-04T10:46:11.497Z,10.47
2019-03-04T10:47:11.483Z,10.45
2019-03-04T10:48:11.481Z,10.29
2019-03-04T10:49:11.460Z,10.22
2019-03-04T10:50:11.456Z,10.23
2019-03-04T10:51:11.441Z,10.27
2019-03-04T10:52:11.429Z,10.29
2019-03-04T10:53:11.426Z,10.25
2019-03-04T10:54:11.412Z,10.25
2019-03-04T10:55:11.396Z,10.05
2019-03-04T10:56:11.383Z,9.93
2019-03-04T10:57:11.375Z,9.78
2019-03-04T10:58:11.370Z,9.65
2019-03-04T10:59:11.349Z,9.74
2019-03-04T11:00:11.337Z,9.64
2019-03-04T11:01:11.326Z,9.66
2019-03-04T11:02:11.320Z,9.68
2019-03-04T11:03:11.330Z,9.75
2019-03-04T11:04:11.291Z,9.78
2019-03-04T11:05:11.285Z,9.99
2019-03-04T11:06:11.270Z,10.22
2019-03-04T11:07:11.261Z,10.29
2019-03-04T11:08:11.252Z,10.42
2019-03-04T11:09:11.250Z,10.68
2019-03-04T11:10:11.225Z,10.70
2019-03-04T11:11:11.227Z,10.96
2019-03-04T11:12:11.203Z,11.06
2019-03-04T11:13:11.233Z,11.21
2019-03-04T11:14:11.190Z,11.19
2019-03-04T11:15:11.187Z,11.19
2019-03-04T11:16:11.160Z,11.19
2019-03-04T11:17:11.149Z,11.27
2019-03-04T11:18:11.134Z,11.25
2019-03-04T11:19:11.134Z,11.43
2019-03-04T11:20:11.120Z,12.09
2019-03-04T11:21:11.105Z,12.39
2019-03-04T11:22:11.091Z,12.70
2019-03-04T11:23:11.080Z,12.79
2019-03-04T11:24:11.097Z,12.57
2019-03-04T11:25:11.057Z,12.41
2019-03-04T11:26:11.063Z,12.16
2019-03-04T11:27:11.032Z,12.04
2019-03-04T11:28:11.021Z,12.09
2019-03-04T11:29:13.181Z,11.85
2019-03-04T11:30:11.010Z,11.75
2019-03-04T11:31:10.989Z,11.72
2019-03-04T11:32:10.988Z,11.67
2019-03-04T11:33:10.968Z,11.75
2019-03-04T11:34:10.978Z,11.79
2019-03-04T11:35:10.949Z,12.05
2019-03-04T11:36:10.934Z,12.32
2019-03-04T11:37:10.981Z,12.31
2019-03-04T11:38:10.917Z,12.39
2019-03-04T11:39:10.898Z,12.53
2019-03-04T11:40:10.902Z,12.56
2019-03-04T11:41:10.964Z,12.62
2019-03-04T11:42:10.863Z,12.74
2019-03-04T11:43:10.854Z,13.00
2019-03-04T11:44:10.840Z,13.03
2019-03-04T11:45:10.844Z,12.97
2019-03-04T11:46:10.816Z,12.93
2019-03-04T11:47:10.807Z,12.96
2019-03-04T11:48:10.797Z,13.11
2019-03-04T11:49:10.784Z,13.29
2019-03-04T11:50:10.789Z,13.11
2019-03-04T11:51:10.764Z,12.89
2019-03-04T11:52:10.749Z,12.57
2019-03-04T11:53:10.736Z,12.57
2019-03-04T11:54:10.736Z,12.57
2019-03-04T11:55:10.733Z,12.59
2019-03-04T11:56:10.704Z,12.50
2019-03-04T11:57:10.692Z,12.50
2019-03-04T11:58:10.682Z,12.41
2019-03-04T11:59:10.671Z,12.35
2019-03-04T12:00:10.659Z,12.38
2019-03-04T12:01:10.697Z,12.37
2019-03-04T12:02:10.634Z,12.41
2019-03-04T12:03:10.669Z,12.37
2019-03-04T12:04:10.613Z,12.32
2019-03-04T12:05:10.602Z,12.14
2019-03-04T12:06:10.605Z,12.20
2019-03-04T12:07:10.587Z,12.05
2019-03-04T12:08:10.569Z,12.04
2019-03-04T12:09:10.565Z,11.91
2019-03-04T12:10:10.545Z,11.98
2019-03-04T12:11:10.553Z,11.95
2019-03-04T12:12:10.522Z,11.78
2019-03-04T12:13:10.528Z,11.91
2019-03-04T12:14:10.500Z,11.83
2019-03-04T12:15:10.492Z,11.78
2019-03-04T12:16:10.488Z,11.88
2019-03-04T12:17:10.476Z,11.96
2019-03-04T12:18:10.468Z,12.01
2019-03-04T12:19:10.466Z,12.10
2019-03-04T12:20:10.436Z,12.12
2019-03-04T12:21:10.434Z,12.24
2019-03-04T12:22:10.409Z,12.31
2019-03-04T12:23:10.413Z,12.32
2019-03-04T12:24:10.392Z,12.31
2019-03-04T12:25:10.392Z,12.41
2019-03-04T12:26:10.375Z,12.41
2019-03-04T12:27:10.353Z,12.50
2019-03-04T12:28:10.352Z,12.77
2019-03-04T12:29:10.331Z,12.83
2019-03-04T12:30:10.339Z,12.83
2019-03-04T12:31:10.348Z,12.97
2019-03-04T12:32:10.297Z,13.26
2019-03-04T12:33:10.287Z,13.39
2019-03-04T12:34:10.281Z,13.22
2019-03-04T12:35:10.270Z,13.22
2019-03-04T12:36:10.250Z,13.38
2019-03-04T12:37:10.248Z,13.49
2019-03-04T12:38:10.228Z,13.20
2019-03-04T12:39:10.215Z,13.05
2019-03-04T12:40:10.205Z,12.95
2019-03-04T12:41:10.216Z,12.86
2019-03-04T12:42:10.194Z,12.65
2019-03-04T12:43:10.175Z,12.52
2019-03-04T12:44:10.171Z,12.47
2019-03-04T12:45:10.153Z,12.54
2019-03-04T12:46:10.142Z,12.49
2019-03-04T12:47:10.150Z,12.41
2019-03-04T12:48:10.115Z,12.37
2019-03-04T12:49:10.104Z,12.41
2019-03-04T12:50:10.097Z,12.39
2019-03-04T12:51:10.082Z,12.37
2019-03-04T12:52:10.093Z,12.34
2019-03-04T12:53:10.112Z,12.34